ULOO 280600Z 09002MPS 9999 OVC003 02/02 Q1019 R19/290050 NOSIG RMK QBB090 OBST OBSC QFE760
QNH:(hPa/inHg/mmHg)1019 / 30.09 / 764
QFE:(hPa/inHg/mmHg)1017 / 30.04 / 763
Temperature2
Dew Point2
Visibility> 10000
Weather
Cloud CoverOVC (300);
Transition Height1000 m./3400 ft.
Transition LevelFL40
SQUAWK